sim
Sign-in with your pilot id or email,
or register
Callsign
Passwort

Schedule Details

Flight Number: OEO2497
Departure: Hannover Langenhagen Airport (EDDV) at 15:10
Arrival: Munich Airport (EDDM) at 16:25

Weather Information
Getting current METAR information for EDDV 010020Z 09004KT CAVOK 11/11 Q1010
Getting current METAR information for EDDM 010020Z 33001KT 1500 0500NE R08L/0550D R08R/0700N BCFG NSC 05/05 Q1011 NOSIG

Schedule Frequency

Route Map